Archerfield, Queensland

2:30 PM AEST on September 03, 2015 (GMT +1000)
Darra | | Change Station
CLOSE
Current Station
Personal Weather Station
Location: Brisbane, QUEENSLAND
Elevation: 82 ft
Nearby Weather Stations

Elev 82 ft 27.56 °S, 152.96 °E | Updated 12 seconds ago

Clear
Clear
80.8 °F
Feels Like 79 °F
N
1.8
Wind Variable Wind from SSW
Gusts 4.9 mph

Today
High -- | Low -- °F
--% Chance of Precip.
Yesterday
High -- | Low -- °F
Precip. -- in
6:00 AM 5:35 PM
Waning Gibbous, 74% visible
Pressure 29.77 in
Visibility -9999.0 miles
Clouds
Heat Index 79 °F
Dew Point 19 °F
Humidity 10%
Rainfall 0.09 in
Snow Depth Not available.
UV 2.0 out of 12
Pollen Not available.
Air Quality Not available.
Flu Activity Not available.
SPECI YAMB 030413Z 28020G30KT CAVOK 25/M05 Q1008 FM0413 MOD TURB BLW 5000FT
Pressure 29.77 in
Visibility -9999.0 miles
Clouds
Heat Index 79 °F
Dew Point 19 °F
Humidity 10%
Rainfall 0.09 in
Snow Depth Not available.
UV 2.0 out of 12
Pollen Not available.
Air Quality Not available.
Flu Activity Not available.
SPECI YAMB 030413Z 28020G30KT CAVOK 25/M05 Q1008 FM0413 MOD TURB BLW 5000FT

10-Day Weather Forecast

×

Almanac

Astronomy

Sep. 03, 2015 Rise Set
Actual Time
Civil Twilight
Nautical Twilight
Astronomical Twilight
Moon
Length of Visible Light
Length of Day
Tomorrow will be .
, % of the Moon is Illuminated

Today's Extremes

Country Highs Country Lows

Community

WunderPhotos

Upload Photos

1,851,913 photos uploaded!

WunderBlogs® & News

Nearby

Air Quality

  Air Quality AQ Index Pollutant
Not available.

Snow Depth

Station Depth Elevation

Earthquake Activity

City Distance Mag. Time & Date
Minimum magnitude displayed is 2.5.

Coastal Water Temperatures

Place Temperature

Stations

Nearby Weather Stations

Station Location Temp. Windchill Dew Point Humidity Wind Precip. Elev Updated Type